Time;durP1;ratioP1;P1;durP2;ratioP2;P2;SDS_P1;SDS_P2;PMS_P1;PMS_P2;Temp;Humidity;BMP_temperature;BMP_pressure;BME280_temperature;BME280_humidity;BME280_pressure;Samples;Min_cycle;Max_cycle;Signal;HPM_P1;HPM_P2
2021/05/20 00:00:29;;;;;;;1.40;1.10;;;12.00;97.50;;;;;;5040583;28;20654;-53
2021/05/20 00:02:55;;;;;;;2.03;1.38;;;12.10;97.70;;;;;;5047115;28;21046;-54
2021/05/20 00:05:21;;;;;;;1.05;0.95;;;12.00;97.70;;;;;;5044031;28;20211;-53
2021/05/20 00:07:50;;;;;;;1.10;1.00;;;12.10;98.00;;;;;;5038325;28;20182;-53
2021/05/20 00:10:17;;;;;;;0.95;0.90;;;11.70;97.90;;;;;;5043138;28;20194;-53
2021/05/20 00:12:44;;;;;;;1.30;1.15;;;11.80;97.90;;;;;;5038891;28;20199;-53
2021/05/20 00:15:11;;;;;;;1.65;1.33;;;12.10;98.10;;;;;;5041090;28;20222;-54
2021/05/20 00:17:37;;;;;;;1.40;1.30;;;12.00;98.30;;;;;;5045565;28;20208;-52
2021/05/20 00:20:06;;;;;;;1.60;1.10;;;12.10;98.40;;;;;;5039021;28;20564;-53
2021/05/20 00:22:32;;;;;;;1.30;1.13;;;11.80;98.60;;;;;;5057697;28;20478;-53
2021/05/20 00:24:58;;;;;;;1.30;1.20;;;11.70;99.00;;;;;;5048900;28;20581;-53
2021/05/20 00:27:24;;;;;;;1.37;1.27;;;12.20;98.90;;;;;;5047188;28;20487;-53
2021/05/20 00:29:50;;;;;;;1.47;1.37;;;12.10;98.90;;;;;;5029706;28;20447;-53
2021/05/20 00:32:19;;;;;;;1.38;1.10;;;11.90;98.90;;;;;;5040975;28;20534;-53
2021/05/20 00:34:45;;;;;;;1.60;1.05;;;11.90;98.80;;;;;;5031880;28;20323;-53
2021/05/20 00:37:11;;;;;;;2.10;1.20;;;12.10;99.30;;;;;;5036620;28;20714;-54
2021/05/20 00:39:40;;;;;;;2.20;1.40;;;11.80;99.50;;;;;;5046452;28;20196;-53
2021/05/20 00:42:10;;;;;;;1.10;0.90;;;12.10;99.70;;;;;;5041325;28;20843;-53
2021/05/20 00:45:02;;;;;;;1.70;1.45;;;11.70;99.50;;;;;;5038112;28;20231;-53
2021/05/20 00:47:48;;;;;;;1.45;1.30;;;11.80;99.60;;;;;;5043758;28;20245;-53
2021/05/20 00:50:14;;;;;;;1.10;1.00;;;12.00;99.90;;;;;;5037834;28;20198;-53
2021/05/20 00:52:42;;;;;;;1.30;1.20;;;11.40;99.90;;;;;;5044969;28;20564;-54
2021/05/20 00:57:59;;;;;;;2.17;1.10;;;11.60;99.90;;;;;;5048483;28;20201;-53
2021/05/20 01:00:26;;;;;;;1.15;1.05;;;11.20;99.90;;;;;;5048745;28;20201;-54
2021/05/20 01:02:54;;;;;;;1.10;1.00;;;11.60;99.90;;;;;;5031011;28;20682;-52
2021/05/20 01:05:24;;;;;;;1.20;1.08;;;11.50;99.90;;;;;;5030506;28;20289;-52
2021/05/20 01:07:57;;;;;;;1.35;0.90;;;11.60;99.90;;;;;;5044591;28;20209;-53
2021/05/20 01:10:23;;;;;;;1.23;1.13;;;11.70;99.90;;;;;;5033808;28;20481;-53
2021/05/20 01:12:51;;;;;;;1.52;1.30;;;11.30;99.90;;;;;;5041380;28;20264;-53
2021/05/20 01:15:31;;;;;;;1.10;1.00;;;11.60;99.90;;;;;;5034364;28;20212;-53
2021/05/20 01:18:02;;;;;;;2.38;1.30;;;11.40;99.90;;;;;;5034170;28;20618;-53
2021/05/20 01:20:30;;;;;;;2.50;1.55;;;11.40;99.90;;;;;;5040960;28;20650;-53
2021/05/20 01:23:12;;;;;;;1.20;1.00;;;11.20;99.90;;;;;;5047736;28;20214;-54
2021/05/20 01:25:58;;;;;;;;;;;;;;;;;;;;;
2021/05/20 01:28:25;;;;;;;1.10;1.00;;;11.50;99.90;;;;;;5048780;28;20196;-53
2021/05/20 01:30:54;;;;;;;1.60;1.05;;;11.50;99.90;;;;;;5035899;28;20214;-52
2021/05/20 01:33:22;;;;;;;2.45;1.15;;;11.30;99.90;;;;;;5038141;28;20221;-53
2021/05/20 01:35:51;;;;;;;1.20;1.10;;;11.40;99.90;;;;;;5048112;28;20174;-53
2021/05/20 01:40:52;;;;;;;1.13;0.93;;;11.30;99.90;;;;;;5038681;28;20193;-53
2021/05/20 01:43:18;;;;;;;1.67;1.15;;;11.50;99.90;;;;;;5030195;28;20202;-52
2021/05/20 01:45:56;;;;;;;1.52;1.23;;;11.50;99.90;;;;;;5036368;28;20174;-53
2021/05/20 01:48:22;;;;;;;1.85;1.20;;;11.30;99.90;;;;;;5047378;28;20185;-53
2021/05/20 01:50:48;;;;;;;1.75;1.10;;;11.10;99.90;;;;;;5045704;28;20295;-52
2021/05/20 01:53:19;;;;;;;1.40;1.30;;;11.20;99.90;;;;;;5029285;28;20197;-52
2021/05/20 01:55:48;;;;;;;1.42;1.33;;;10.90;99.90;;;;;;5029092;28;20195;-54
2021/05/20 01:58:15;;;;;;;1.30;1.20;;;10.70;99.90;;;;;;5042996;28;20611;-54
2021/05/20 02:00:41;;;;;;;1.55;1.30;;;10.80;99.90;;;;;;5044337;28;20240;-54
2021/05/20 02:03:07;;;;;;;2.47;1.50;;;10.80;99.90;;;;;;5032978;28;20209;-54
2021/05/20 02:05:35;;;;;;;1.30;1.20;;;10.60;99.90;;;;;;5047269;28;20693;-53
2021/05/20 02:08:01;;;;;;;3.38;1.23;;;10.50;99.90;;;;;;5036968;28;20866;-54
2021/05/20 02:10:27;;;;;;;1.17;1.00;;;10.50;99.90;;;;;;5045024;28;20182;-53
2021/05/20 02:12:53;;;;;;;1.20;1.10;;;10.70;99.90;;;;;;5035894;28;20302;-53
2021/05/20 02:15:24;;;;;;;1.50;1.20;;;10.60;99.90;;;;;;5039813;28;20302;-53
2021/05/20 02:17:53;;;;;;;1.30;1.20;;;10.80;99.90;;;;;;5046726;28;20193;-53
2021/05/20 02:20:20;;;;;;;1.60;1.30;;;10.80;99.90;;;;;;5038034;28;20566;-54
2021/05/20 02:22:49;;;;;;;2.58;1.15;;;10.70;99.90;;;;;;5033239;28;20210;-53
2021/05/20 02:25:19;;;;;;;1.80;1.33;;;10.60;99.90;;;;;;5056001;28;20201;-53
2021/05/20 02:27:48;;;;;;;1.38;1.27;;;10.60;99.90;;;;;;5041149;28;20309;-54
2021/05/20 02:30:15;;;;;;;1.40;1.30;;;10.40;99.90;;;;;;5047639;28;20269;-54
2021/05/20 02:32:41;;;;;;;1.30;1.20;;;10.50;99.90;;;;;;5030758;28;20186;-54
2021/05/20 02:35:10;;;;;;;1.73;1.15;;;10.80;99.90;;;;;;5040162;28;20233;-54
2021/05/20 02:37:37;;;;;;;1.52;1.40;;;10.90;99.90;;;;;;5034992;28;20196;-53
2021/05/20 02:40:12;;;;;;;1.85;1.35;;;11.00;99.90;;;;;;5034895;28;20284;-53
2021/05/20 02:42:41;;;;;;;1.13;1.02;;;10.60;99.90;;;;;;5048192;28;20682;-53
2021/05/20 02:45:15;;;;;;;1.77;1.05;;;10.30;99.90;;;;;;5036950;28;20442;-53
2021/05/20 02:47:45;;;;;;;1.50;1.17;;;10.50;99.90;;;;;;5039739;28;20670;-53
2021/05/20 02:50:11;;;;;;;1.10;1.00;;;10.80;99.90;;;;;;5046911;28;20681;-53
2021/05/20 02:52:38;;;;;;;1.23;1.10;;;10.70;99.90;;;;;;5042847;28;20720;-53
2021/05/20 02:55:07;;;;;;;1.20;1.10;;;10.70;99.90;;;;;;5039706;28;20206;-53
2021/05/20 02:57:34;;;;;;;1.88;1.77;;;10.70;99.90;;;;;;5045899;28;20552;-53
2021/05/20 03:00:00;;;;;;;1.58;1.13;;;11.00;99.90;;;;;;5039084;28;20186;-53
2021/05/20 03:02:27;;;;;;;1.10;1.00;;;10.70;99.90;;;;;;5033115;28;20217;-53
2021/05/20 03:04:55;;;;;;;1.30;1.20;;;10.50;99.90;;;;;;5031519;28;20273;-54
2021/05/20 03:07:24;;;;;;;1.40;1.30;;;10.70;99.90;;;;;;5038995;28;20183;-53
2021/05/20 03:09:52;;;;;;;1.25;1.15;;;10.90;99.90;;;;;;5039238;28;20711;-54
2021/05/20 03:12:18;;;;;;;1.10;1.00;;;10.90;99.90;;;;;;5045839;28;20248;-53
2021/05/20 03:14:47;;;;;;;1.90;1.20;;;10.60;99.90;;;;;;5040525;28;20242;-54
2021/05/20 03:17:15;;;;;;;1.70;1.60;;;10.70;99.90;;;;;;5043951;28;20448;-53
2021/05/20 03:19:44;;;;;;;2.22;1.20;;;10.60;99.90;;;;;;5037885;28;20234;-54
2021/05/20 03:22:09;;;;;;;1.40;1.23;;;10.50;99.90;;;;;;5031961;28;20170;-53
2021/05/20 03:24:41;;;;;;;1.30;1.13;;;10.70;99.90;;;;;;5046273;28;20658;-53
2021/05/20 03:27:09;;;;;;;1.20;1.10;;;10.50;99.90;;;;;;5041921;28;20787;-53
2021/05/20 03:29:35;;;;;;;1.50;1.40;;;10.20;99.90;;;;;;5030727;28;20193;-53
2021/05/20 03:32:02;;;;;;;1.60;1.50;;;10.30;99.90;;;;;;5041849;28;20567;-54
2021/05/20 03:34:28;;;;;;;1.75;1.33;;;10.20;99.90;;;;;;5050020;28;20532;-54
2021/05/20 03:36:54;;;;;;;1.20;1.10;;;10.20;99.90;;;;;;5038276;28;20191;-53
2021/05/20 03:39:20;;;;;;;1.52;1.17;;;10.30;99.90;;;;;;5035338;28;20191;-53
2021/05/20 03:41:46;;;;;;;1.25;1.15;;;10.20;99.90;;;;;;5045982;28;20651;-53
2021/05/20 03:44:12;;;;;;;1.50;1.40;;;10.40;99.90;;;;;;5031492;28;20217;-53
2021/05/20 03:46:38;;;;;;;2.80;2.60;;;10.60;99.90;;;;;;5043565;28;20232;-53
2021/05/20 03:49:04;;;;;;;3.80;2.00;;;10.50;99.90;;;;;;5044755;28;20170;-54
2021/05/20 03:51:33;;;;;;;1.73;1.37;;;10.50;99.90;;;;;;5030877;28;20566;-54
2021/05/20 03:54:01;;;;;;;1.67;1.20;;;10.60;99.90;;;;;;5030790;28;20436;-53
2021/05/20 03:56:33;;;;;;;1.48;1.38;;;10.60;99.90;;;;;;5033216;28;20248;-54
2021/05/20 03:58:59;;;;;;;4.53;1.40;;;10.70;99.90;;;;;;5030019;28;20536;-54
2021/05/20 04:01:27;;;;;;;2.60;1.20;;;10.50;99.90;;;;;;5031758;28;20197;-53
2021/05/20 04:03:53;;;;;;;1.20;1.10;;;10.70;99.90;;;;;;5046976;28;20475;-53
2021/05/20 04:06:25;;;;;;;2.85;1.60;;;10.50;99.90;;;;;;5030068;28;20190;-53
2021/05/20 04:08:53;;;;;;;1.60;1.17;;;10.80;99.90;;;;;;5044992;28;20213;-54
2021/05/20 04:11:19;;;;;;;1.90;1.00;;;10.50;99.90;;;;;;5039964;28;20185;-53
2021/05/20 04:13:45;;;;;;;1.38;1.10;;;10.80;99.90;;;;;;5048858;28;20563;-53
2021/05/20 04:16:12;;;;;;;1.40;1.30;;;11.00;99.90;;;;;;5048025;28;20190;-54
2021/05/20 04:18:38;;;;;;;1.45;1.10;;;10.90;99.90;;;;;;5048394;28;20206;-53
2021/05/20 04:21:07;;;;;;;1.85;1.40;;;10.80;99.90;;;;;;5031181;28;20585;-54
2021/05/20 04:23:34;;;;;;;1.48;1.38;;;11.00;99.90;;;;;;5047496;28;20296;-53
2021/05/20 04:26:00;;;;;;;2.17;1.70;;;10.30;99.90;;;;;;5040082;28;20697;-53
2021/05/20 04:28:32;;;;;;;2.00;0.95;;;11.00;99.90;;;;;;5033870;28;20192;-53
2021/05/20 04:31:00;;;;;;;2.00;1.13;;;11.00;99.90;;;;;;5041937;28;20182;-53
2021/05/20 04:33:26;;;;;;;1.63;1.45;;;11.20;99.90;;;;;;5037954;28;20193;-53
2021/05/20 04:35:54;;;;;;;1.77;1.27;;;11.30;99.90;;;;;;5041366;28;20198;-54
2021/05/20 04:38:20;;;;;;;1.30;1.20;;;11.40;99.90;;;;;;5045368;28;20187;-53
2021/05/20 04:40:46;;;;;;;0.93;0.93;;;11.30;99.90;;;;;;5045190;28;20212;-55
2021/05/20 04:43:13;;;;;;;0.80;0.80;;;11.60;99.90;;;;;;5041413;28;20514;-53
2021/05/20 04:45:42;;;;;;;1.00;0.90;;;11.40;99.90;;;;;;5043868;28;20293;-53
2021/05/20 04:48:10;;;;;;;1.13;1.02;;;11.50;99.90;;;;;;5041449;28;20178;-54
2021/05/20 04:50:40;;;;;;;1.17;1.02;;;11.40;99.90;;;;;;5058654;28;20247;-54
2021/05/20 04:53:06;;;;;;;1.10;1.00;;;11.30;99.90;;;;;;5046459;28;20223;-54
2021/05/20 04:55:32;;;;;;;3.03;1.10;;;11.10;99.90;;;;;;5046641;28;20237;-52
2021/05/20 04:58:07;;;;;;;1.63;1.10;;;11.20;99.90;;;;;;5042692;28;20214;-51
2021/05/20 05:00:33;;;;;;;2.95;1.08;;;11.70;99.90;;;;;;5038370;28;20414;-51
2021/05/20 05:02:59;;;;;;;1.50;1.15;;;11.70;99.90;;;;;;5044803;28;20210;-51
2021/05/20 05:05:25;;;;;;;1.23;1.00;;;11.70;99.90;;;;;;5028430;28;20202;-53
2021/05/20 05:07:51;;;;;;;1.00;0.90;;;11.80;99.90;;;;;;5042615;28;20279;-52
2021/05/20 05:10:17;;;;;;;1.02;0.93;;;12.10;99.90;;;;;;5044977;28;20482;-53
2021/05/20 05:12:43;;;;;;;1.10;1.00;;;12.10;99.90;;;;;;5032934;28;20183;-51
2021/05/20 05:15:12;;;;;;;4.15;1.00;;;12.20;99.90;;;;;;5046488;28;20208;-51
2021/05/20 05:17:41;;;;;;;1.75;1.25;;;12.40;99.90;;;;;;5037331;28;20203;-51
2021/05/20 05:20:08;;;;;;;3.00;1.55;;;12.50;99.90;;;;;;5042574;28;20285;-50
2021/05/20 05:22:36;;;;;;;2.90;1.45;;;12.40;99.90;;;;;;5041290;28;20217;-51
2021/05/20 05:25:02;;;;;;;2.97;1.17;;;12.40;99.90;;;;;;5042767;28;20229;-52
2021/05/20 05:27:28;;;;;;;1.23;1.13;;;12.70;99.90;;;;;;5039915;28;20200;-55
2021/05/20 05:29:54;;;;;;;1.20;0.97;;;12.90;99.90;;;;;;5044299;28;20182;-53
2021/05/20 05:32:23;;;;;;;1.33;1.23;;;12.40;99.90;;;;;;5038016;28;20970;-52
2021/05/20 05:34:49;;;;;;;2.35;1.45;;;12.40;99.90;;;;;;5038474;28;20218;-51
2021/05/20 05:37:15;;;;;;;1.83;1.45;;;12.50;99.90;;;;;;5042669;28;20195;-50
2021/05/20 05:39:42;;;;;;;2.65;1.63;;;12.50;99.90;;;;;;5040499;28;20280;-51
2021/05/20 05:42:08;;;;;;;3.55;1.35;;;12.70;99.90;;;;;;5029493;28;20183;-50
2021/05/20 05:44:36;;;;;;;2.05;1.08;;;12.80;99.90;;;;;;5040382;28;20203;-51
2021/05/20 05:47:13;;;;;;;1.80;1.10;;;12.40;99.90;;;;;;5045249;28;20191;-50
2021/05/20 05:49:46;;;;;;;1.40;1.25;;;12.80;99.90;;;;;;5046643;28;20179;-51
2021/05/20 05:52:18;;;;;;;1.02;0.93;;;13.10;99.90;;;;;;5031105;28;20188;-51
2021/05/20 05:54:45;;;;;;;1.90;1.20;;;12.60;99.90;;;;;;5062032;28;20306;-50
2021/05/20 05:57:11;;;;;;;1.73;1.50;;;12.70;99.90;;;;;;5029518;28;20188;-50
2021/05/20 05:59:36;;;;;;;2.25;1.25;;;12.90;99.90;;;;;;5026105;28;20188;-57
2021/05/20 06:02:02;;;;;;;1.07;0.97;;;13.00;99.90;;;;;;5040026;28;20204;-55
2021/05/20 06:04:30;;;;;;;1.70;1.43;;;13.20;99.90;;;;;;5047197;28;20469;-54
2021/05/20 06:06:59;;;;;;;1.40;1.23;;;13.30;99.90;;;;;;5044902;28;20457;-55
2021/05/20 06:09:25;;;;;;;2.10;1.30;;;13.10;99.90;;;;;;5042296;28;20181;-54
2021/05/20 06:11:51;;;;;;;2.15;1.50;;;13.20;99.90;;;;;;5042128;28;20177;-54
2021/05/20 06:14:17;;;;;;;1.85;1.20;;;13.60;99.90;;;;;;5039778;28;20314;-52
2021/05/20 06:16:43;;;;;;;1.63;1.48;;;13.10;99.90;;;;;;5042751;28;20620;-53
2021/05/20 06:19:14;;;;;;;2.17;1.75;;;13.10;99.90;;;;;;5035003;28;20412;-53
2021/05/20 06:21:40;;;;;;;1.45;1.35;;;13.00;99.90;;;;;;5036020;28;20196;-53
2021/05/20 06:24:10;;;;;;;1.42;1.23;;;12.80;99.90;;;;;;5038785;28;20242;-54
2021/05/20 06:26:36;;;;;;;1.88;1.77;;;12.70;99.90;;;;;;5044167;28;20191;-54
2021/05/20 06:29:05;;;;;;;1.75;1.30;;;12.40;99.90;;;;;;5039633;28;20881;-49
2021/05/20 06:31:31;;;;;;;1.65;1.50;;;12.50;99.90;;;;;;5036845;28;20188;-52
2021/05/20 06:34:00;;;;;;;1.58;1.33;;;12.10;99.90;;;;;;5039360;28;20200;-51
2021/05/20 06:36:26;;;;;;;1.27;1.17;;;12.70;99.90;;;;;;5060986;28;20547;-53
2021/05/20 06:38:56;;;;;;;1.70;1.50;;;12.80;99.90;;;;;;5038567;28;20198;-52
2021/05/20 06:41:25;;;;;;;1.35;1.25;;;13.00;99.90;;;;;;5032924;28;20205;-50
2021/05/20 06:43:51;;;;;;;1.70;1.60;;;13.20;99.90;;;;;;5045903;28;20330;-50
2021/05/20 06:46:17;;;;;;;1.63;1.10;;;13.60;99.90;;;;;;5041662;28;20190;-50
2021/05/20 06:48:43;;;;;;;1.38;1.25;;;13.30;99.90;;;;;;5038288;28;20695;-50
2021/05/20 06:51:09;;;;;;;1.55;1.20;;;13.60;99.90;;;;;;5047055;28;20189;-50
2021/05/20 06:53:37;;;;;;;2.33;1.92;;;13.60;99.90;;;;;;5037009;28;20283;-51
2021/05/20 06:56:06;;;;;;;1.88;1.58;;;14.10;99.30;;;;;;5048209;28;20524;-51
2021/05/20 07:01:16;;;;;;;2.58;2.30;;;14.00;97.90;;;;;;5037834;28;20196;-50
2021/05/20 07:03:43;;;;;;;1.52;1.42;;;14.10;97.90;;;;;;5041307;28;20212;-51
2021/05/20 07:06:15;;;;;;;1.80;1.20;;;14.10;97.20;;;;;;5047355;28;20276;-50
2021/05/20 07:08:44;;;;;;;2.28;1.45;;;14.40;97.50;;;;;;5048220;28;20220;-52
2021/05/20 07:11:13;;;;;;;2.20;1.60;;;14.40;96.90;;;;;;5038804;28;20182;-49
2021/05/20 07:13:45;;;;;;;2.35;1.67;;;14.50;96.70;;;;;;5040186;28;20217;-52
2021/05/20 07:16:10;;;;;;;1.50;1.40;;;14.40;96.40;;;;;;5037041;28;20252;-53
2021/05/20 07:18:36;;;;;;;1.33;1.23;;;14.80;96.20;;;;;;5032820;28;20229;-53
2021/05/20 07:21:04;;;;;;;1.95;1.80;;;15.10;96.70;;;;;;5022492;28;20811;-51
2021/05/20 07:23:32;;;;;;;1.02;1.02;;;14.80;96.50;;;;;;5035349;28;20621;-50
2021/05/20 07:25:59;;;;;;;1.45;1.35;;;15.00;96.30;;;;;;5045447;28;20190;-50
2021/05/20 07:28:25;;;;;;;1.40;1.30;;;14.80;96.00;;;;;;5036452;28;20186;-51
2021/05/20 07:30:51;;;;;;;1.55;1.45;;;14.90;95.60;;;;;;5049791;28;20557;-51
2021/05/20 07:33:17;;;;;;;1.50;1.40;;;14.80;96.30;;;;;;5033595;28;20186;-52
2021/05/20 07:35:43;;;;;;;1.73;1.63;;;15.00;96.30;;;;;;5037096;28;20210;-53
2021/05/20 07:38:12;;;;;;;5.90;1.65;;;14.80;95.50;;;;;;5036974;28;20182;-51
2021/05/20 07:40:38;;;;;;;2.03;1.50;;;14.70;95.70;;;;;;5050106;28;20192;-53
2021/05/20 07:43:04;;;;;;;1.30;1.20;;;15.10;95.40;;;;;;5035151;28;20348;-52
2021/05/20 07:45:30;;;;;;;4.60;1.70;;;15.10;94.80;;;;;;5037002;28;20297;-51
2021/05/20 07:47:56;;;;;;;1.92;1.33;;;15.20;94.60;;;;;;5035136;28;20625;-50
2021/05/20 07:50:22;;;;;;;1.38;1.27;;;15.40;93.80;;;;;;5045752;28;20194;-52
2021/05/20 07:52:48;;;;;;;1.80;1.40;;;15.40;93.00;;;;;;5044729;28;20271;-50
2021/05/20 07:55:15;;;;;;;2.78;1.20;;;15.60;93.00;;;;;;5049568;28;20209;-53
2021/05/20 07:57:41;;;;;;;1.40;1.30;;;16.70;92.40;;;;;;5043732;28;20240;-52
2021/05/20 08:00:09;;;;;;;1.10;1.00;;;18.60;88.90;;;;;;5034693;28;20182;-52
2021/05/20 08:02:50;;;;;;;3.45;1.73;;;20.40;79.30;;;;;;5037018;28;20351;-53
2021/05/20 08:12:49;;;;;;;1.30;1.20;;;17.90;80.70;;;;;;5046891;28;20666;-50
2021/05/20 08:15:15;;;;;;;1.83;1.40;;;17.30;83.30;;;;;;5039129;28;20283;-49
2021/05/20 08:17:44;;;;;;;1.30;1.20;;;17.20;84.90;;;;;;5041451;28;20641;-50
2021/05/20 08:20:10;;;;;;;1.50;1.40;;;17.40;85.30;;;;;;5043920;28;20185;-53
2021/05/20 08:22:38;;;;;;;1.10;1.00;;;17.00;84.60;;;;;;5034629;28;20225;-53
2021/05/20 08:25:06;;;;;;;3.00;1.40;;;16.30;85.60;;;;;;5046936;28;20206;-54
2021/05/20 08:27:33;;;;;;;3.60;1.50;;;16.80;87.20;;;;;;5041047;28;20185;-53
2021/05/20 08:29:59;;;;;;;1.55;1.45;;;16.90;87.60;;;;;;5040260;28;20185;-52
2021/05/20 08:32:25;;;;;;;1.60;1.20;;;16.50;88.30;;;;;;5037240;28;20616;-52
2021/05/20 08:34:54;;;;;;;4.38;1.92;;;16.50;87.70;;;;;;5042486;28;20210;-52
2021/05/20 08:37:25;;;;;;;3.22;1.60;;;16.50;87.60;;;;;;5042737;28;20677;-51
2021/05/20 08:39:51;;;;;;;1.30;1.20;;;16.40;88.20;;;;;;5054839;28;20253;-52
2021/05/20 08:42:17;;;;;;;1.30;1.20;;;16.30;87.50;;;;;;5046063;28;20228;-52
2021/05/20 08:44:43;;;;;;;1.30;1.20;;;16.50;87.50;;;;;;5046812;28;20997;-51
2021/05/20 08:47:11;;;;;;;1.93;1.20;;;17.10;87.90;;;;;;5040071;28;20296;-51
2021/05/20 08:49:44;;;;;;;1.90;1.80;;;17.80;83.80;;;;;;5037057;28;20466;-52
2021/05/20 08:52:12;;;;;;;1.42;1.15;;;18.20;81.90;;;;;;5039492;28;20859;-52
2021/05/20 08:54:38;;;;;;;1.00;0.90;;;18.30;80.70;;;;;;5033345;28;20572;-52
2021/05/20 08:57:08;;;;;;;1.60;0.90;;;18.60;80.30;;;;;;5036022;28;20178;-52
2021/05/20 08:59:34;;;;;;;1.20;1.10;;;18.10;79.80;;;;;;5040379;28;20842;-52
2021/05/20 09:01:59;;;;;;;1.63;0.87;;;18.20;80.30;;;;;;5043047;28;20177;-52
2021/05/20 09:04:26;;;;;;;1.20;1.10;;;18.30;79.60;;;;;;5047142;28;20537;-51
2021/05/20 09:06:55;;;;;;;1.02;1.02;;;18.60;79.10;;;;;;5043227;28;20254;-52
2021/05/20 09:09:25;;;;;;;0.80;0.73;;;19.10;77.40;;;;;;5045331;28;20258;-52
2021/05/20 09:11:58;;;;;;;0.80;0.80;;;19.50;72.70;;;;;;5044674;28;20551;-52
2021/05/20 09:14:40;;;;;;;1.25;1.15;;;19.40;72.80;;;;;;5042430;28;20359;-52
2021/05/20 09:17:18;;;;;;;1.55;0.95;;;19.20;74.70;;;;;;5042223;28;20235;-51
2021/05/20 09:19:58;;;;;;;1.35;1.25;;;18.60;74.70;;;;;;5039319;28;20281;-50
2021/05/20 09:22:24;;;;;;;1.25;1.08;;;18.50;74.40;;;;;;5032724;28;20196;-50
2021/05/20 09:24:59;;;;;;;3.58;2.17;;;17.90;76.10;;;;;;5041941;28;20230;-50
2021/05/20 09:27:34;;;;;;;1.30;1.20;;;18.00;76.20;;;;;;5036713;28;20177;-51
2021/05/20 09:30:24;;;;;;;2.03;1.45;;;17.50;77.30;;;;;;5043327;28;20550;-52
2021/05/20 09:32:57;;;;;;;1.92;1.17;;;17.00;79.40;;;;;;5030130;28;20196;-51
2021/05/20 09:35:31;;;;;;;3.58;2.55;;;16.90;80.10;;;;;;5042193;28;20210;-51
2021/05/20 09:38:12;;;;;;;2.78;1.40;;;16.60;81.60;;;;;;5034501;28;20588;-51
2021/05/20 09:40:55;;;;;;;4.10;1.10;;;16.80;81.70;;;;;;5037786;28;20280;-51
2021/05/20 09:43:24;;;;;;;0.80;0.70;;;16.70;82.20;;;;;;5032071;28;20221;-52
2021/05/20 09:45:54;;;;;;;1.00;0.90;;;16.30;81.50;;;;;;5058113;28;20688;-51
2021/05/20 09:48:21;;;;;;;2.00;1.90;;;16.10;83.40;;;;;;5039261;28;20186;-52
2021/05/20 09:50:55;;;;;;;1.35;1.05;;;16.30;84.40;;;;;;5036469;28;20208;-51
2021/05/20 09:53:24;;;;;;;0.80;0.80;;;16.00;83.00;;;;;;5042051;28;20406;-52
2021/05/20 09:55:55;;;;;;;1.08;0.90;;;16.20;83.20;;;;;;5038254;28;20984;-51
2021/05/20 09:58:27;;;;;;;1.75;1.08;;;16.10;83.90;;;;;;5039098;28;20792;-50
2021/05/20 10:01:00;;;;;;;1.50;1.40;;;16.00;84.00;;;;;;5043663;28;20252;-51
2021/05/20 10:03:28;;;;;;;1.20;1.10;;;16.60;83.40;;;;;;5042871;28;20286;-49
2021/05/20 10:05:59;;;;;;;2.67;1.30;;;16.50;82.20;;;;;;5040808;28;20640;-49
2021/05/20 10:08:29;;;;;;;1.40;1.30;;;16.30;82.90;;;;;;5035227;28;20682;-50
2021/05/20 10:10:56;;;;;;;0.90;0.90;;;16.00;82.90;;;;;;5040505;28;20181;-50
2021/05/20 10:13:32;;;;;;;1.20;1.00;;;16.60;83.10;;;;;;5035650;28;20217;-51
2021/05/20 10:15:58;;;;;;;1.10;1.00;;;16.90;81.90;;;;;;5036370;28;20191;-50
2021/05/20 10:18:27;;;;;;;1.35;0.90;;;17.50;81.30;;;;;;5042815;28;20268;-51
2021/05/20 10:21:00;;;;;;;2.97;1.40;;;18.20;75.60;;;;;;5050309;28;20697;-52
2021/05/20 10:23:28;;;;;;;1.30;1.02;;;19.10;74.10;;;;;;5042040;28;20205;-51
2021/05/20 10:25:59;;;;;;;1.30;0.80;;;20.30;71.20;;;;;;5044873;28;20174;-51
2021/05/20 10:28:26;;;;;;;1.23;1.13;;;20.70;67.10;;;;;;5041125;28;20252;-52
2021/05/20 10:30:54;;;;;;;2.03;1.83;;;20.00;67.50;;;;;;5049823;28;20177;-50
2021/05/20 10:33:26;;;;;;;1.10;1.00;;;19.80;67.90;;;;;;5045615;28;20193;-50
2021/05/20 10:35:54;;;;;;;1.45;0.80;;;19.80;67.20;;;;;;5048803;28;20272;-50
2021/05/20 10:38:30;;;;;;;1.00;0.90;;;19.70;66.20;;;;;;5050954;28;20182;-51
2021/05/20 10:41:19;;;;;;;0.93;0.85;;;19.30;66.50;;;;;;5049038;28;20185;-49
2021/05/20 10:43:49;;;;;;;0.90;0.70;;;19.90;67.20;;;;;;5045320;28;20296;-51
2021/05/20 10:46:20;;;;;;;1.37;0.93;;;21.20;61.80;;;;;;5048381;28;20251;-52
2021/05/20 10:48:54;;;;;;;0.80;0.80;;;22.30;59.00;;;;;;5043330;28;20924;-51
2021/05/20 10:51:30;;;;;;;1.15;0.90;;;21.20;59.10;;;;;;5045110;28;20189;-51
2021/05/20 10:54:05;;;;;;;1.10;1.00;;;20.50;59.50;;;;;;5038298;28;20201;-53
2021/05/20 10:56:38;;;;;;;2.15;1.63;;;20.00;61.50;;;;;;5057110;28;20221;-53
2021/05/20 10:59:31;;;;;;;1.10;1.00;;;19.80;63.50;;;;;;5032693;28;20189;-54
2021/05/20 11:01:57;;;;;;;1.10;1.00;;;19.70;62.40;;;;;;5040251;28;20185;-52
2021/05/20 11:04:38;;;;;;;1.73;0.90;;;19.50;62.10;;;;;;5047047;28;20229;-52
2021/05/20 11:07:05;;;;;;;2.15;1.67;;;20.20;59.90;;;;;;5033992;28;20181;-52
2021/05/20 11:09:54;;;;;;;0.80;0.70;;;20.50;60.70;;;;;;5037607;28;20184;-52
2021/05/20 11:12:29;;;;;;;2.13;1.30;;;20.10;60.30;;;;;;5046668;28;20197;-53
2021/05/20 11:14:55;;;;;;;0.80;0.73;;;20.00;61.70;;;;;;5045931;28;20251;-53
2021/05/20 11:17:39;;;;;;;1.85;1.20;;;19.80;61.20;;;;;;5032783;28;20279;-51
2021/05/20 11:20:24;;;;;;;1.00;0.90;;;19.00;63.30;;;;;;5046141;28;20185;-51
2021/05/20 11:23:14;;;;;;;2.10;1.75;;;18.60;66.60;;;;;;5041988;28;20224;-51
2021/05/20 11:25:41;;;;;;;1.27;0.80;;;18.50;67.40;;;;;;5043270;28;20202;-51
2021/05/20 11:28:10;;;;;;;1.10;0.98;;;18.10;66.70;;;;;;5045440;28;20182;-51
2021/05/20 11:30:36;;;;;;;5.03;4.32;;;17.80;68.10;;;;;;5042491;28;20243;-51
2021/05/20 11:33:03;;;;;;;1.70;0.90;;;17.80;69.20;;;;;;5039069;28;20190;-51
2021/05/20 11:38:01;;;;;;;3.20;2.95;;;17.30;70.20;;;;;;5048784;28;20181;-51
2021/05/20 11:40:37;;;;;;;2.47;2.20;;;17.50;72.40;;;;;;5039607;28;20273;-52
2021/05/20 11:43:03;;;;;;;1.10;0.90;;;17.50;72.30;;;;;;5046269;28;20266;-52
2021/05/20 11:45:36;;;;;;;3.53;2.07;;;17.60;71.10;;;;;;5041182;28;20206;-51
2021/05/20 11:48:05;;;;;;;1.08;0.90;;;17.60;68.80;;;;;;5033843;28;20985;-51
2021/05/20 11:50:36;;;;;;;2.10;1.10;;;17.80;67.90;;;;;;5034427;28;20190;-51
2021/05/20 11:53:14;;;;;;;1.48;1.35;;;18.00;67.20;;;;;;5037839;28;20191;-52
2021/05/20 11:55:42;;;;;;;1.60;1.25;;;18.30;62.30;;;;;;5048656;28;20212;-51
2021/05/20 11:58:10;;;;;;;1.20;0.90;;;18.60;62.90;;;;;;5046779;28;20231;-52
2021/05/20 12:00:39;;;;;;;0.80;0.80;;;18.90;61.10;;;;;;5061691;28;20197;-51
2021/05/20 12:03:07;;;;;;;0.80;0.70;;;18.60;59.40;;;;;;5042652;28;20307;-52
2021/05/20 12:05:37;;;;;;;1.13;0.70;;;18.90;59.50;;;;;;5036585;28;20198;-52
2021/05/20 12:08:05;;;;;;;1.15;0.90;;;19.30;59.00;;;;;;5035243;28;20193;-52
2021/05/20 12:10:32;;;;;;;0.73;0.70;;;19.30;58.30;;;;;;5045812;28;20182;-52
2021/05/20 12:13:02;;;;;;;0.73;0.73;;;19.30;57.70;;;;;;5045312;28;20181;-51
2021/05/20 12:15:31;;;;;;;1.50;1.23;;;19.50;57.90;;;;;;5042976;28;20206;-51
2021/05/20 12:18:10;;;;;;;4.45;2.00;;;19.40;59.10;;;;;;5038505;28;20216;-51
2021/05/20 12:20:47;;;;;;;0.90;0.80;;;19.60;57.60;;;;;;5041711;28;20626;-51
2021/05/20 12:23:13;;;;;;;1.20;0.60;;;19.60;57.60;;;;;;5040833;28;20212;-51
2021/05/20 12:25:39;;;;;;;0.70;0.60;;;19.50;57.60;;;;;;5036830;28;20253;-51
2021/05/20 12:28:10;;;;;;;2.17;1.60;;;19.70;56.70;;;;;;5039924;28;20444;-51
2021/05/20 12:30:37;;;;;;;0.90;0.60;;;19.80;58.00;;;;;;5035991;28;20453;-51
2021/05/20 12:33:04;;;;;;;1.55;0.80;;;19.60;57.70;;;;;;5039602;28;20196;-50
2021/05/20 12:35:33;;;;;;;1.27;0.80;;;19.50;57.90;;;;;;5041973;28;20293;-51
2021/05/20 12:38:14;;;;;;;0.90;0.80;;;19.50;57.90;;;;;;5042361;28;20194;-50
2021/05/20 12:40:41;;;;;;;1.25;0.85;;;19.10;58.50;;;;;;5046170;28;20196;-51
2021/05/20 12:43:12;;;;;;;2.55;0.90;;;19.00;60.50;;;;;;5037384;28;20198;-50
2021/05/20 12:45:47;;;;;;;1.13;0.90;;;18.80;62.90;;;;;;5045609;28;20197;-50
2021/05/20 12:49:02;;;;;;;0.80;0.80;;;18.60;62.70;;;;;;5034468;28;20181;-51
2021/05/20 12:51:37;;;;;;;0.80;0.73;;;18.30;62.90;;;;;;5007499;28;20233;-51
2021/05/20 12:54:12;;;;;;;7.32;1.30;;;18.10;62.20;;;;;;5045671;28;20212;-50
2021/05/20 12:56:46;;;;;;;1.63;1.05;;;18.10;62.60;;;;;;5042751;28;20315;-50
2021/05/20 12:59:42;;;;;;;0.77;0.77;;;18.10;62.80;;;;;;5040430;28;20185;-52
2021/05/20 13:02:17;;;;;;;1.25;1.13;;;18.30;64.10;;;;;;5034968;28;20189;-52
2021/05/20 13:04:43;;;;;;;0.90;0.57;;;18.30;62.30;;;;;;5042478;28;20212;-54
2021/05/20 13:07:15;;;;;;;0.60;0.52;;;18.60;60.00;;;;;;5041976;28;20233;-50
2021/05/20 13:09:43;;;;;;;2.45;1.00;;;18.60;60.50;;;;;;5046286;28;20185;-50
2021/05/20 13:12:15;;;;;;;0.70;0.70;;;18.70;60.90;;;;;;5044491;28;20575;-51
2021/05/20 13:14:59;;;;;;;1.40;1.30;;;19.30;61.90;;;;;;5042840;28;20255;-52
2021/05/20 13:17:50;;;;;;;0.80;0.80;;;19.40;61.80;;;;;;5036974;28;20291;-52